sensor_id;sensor_type;location;lat;lon;timestamp;P1;durP1;ratioP1;P2;durP2;ratioP2
69188;SDS011;56302;52.322;5.926;2024-01-07T00:01:55;24.45;;;11.50;;
69188;SDS011;56302;52.322;5.926;2024-01-07T00:04:20;25.30;;;13.20;;
69188;SDS011;56302;52.322;5.926;2024-01-07T00:06:46;23.67;;;12.27;;
69188;SDS011;56302;52.322;5.926;2024-01-07T00:09:11;24.83;;;11.40;;
69188;SDS011;56302;52.322;5.926;2024-01-07T00:11:37;17.35;;;9.05;;
69188;SDS011;56302;52.322;5.926;2024-01-07T00:14:04;23.27;;;11.17;;
69188;SDS011;56302;52.322;5.926;2024-01-07T00:16:29;24.23;;;11.73;;
69188;SDS011;56302;52.322;5.926;2024-01-07T00:18:55;24.10;;;11.47;;
69188;SDS011;56302;52.322;5.926;2024-01-07T00:21:20;23.40;;;10.52;;
69188;SDS011;56302;52.322;5.926;2024-01-07T00:23:46;22.07;;;11.43;;
69188;SDS011;56302;52.322;5.926;2024-01-07T00:26:12;23.63;;;11.43;;
69188;SDS011;56302;52.322;5.926;2024-01-07T00:28:37;16.15;;;7.60;;
69188;SDS011;56302;52.322;5.926;2024-01-07T00:31:03;21.10;;;10.50;;
69188;SDS011;56302;52.322;5.926;2024-01-07T00:33:30;19.88;;;11.07;;
69188;SDS011;56302;52.322;5.926;2024-01-07T00:35:56;19.63;;;10.37;;
69188;SDS011;56302;52.322;5.926;2024-01-07T00:38:22;22.40;;;10.85;;
69188;SDS011;56302;52.322;5.926;2024-01-07T00:40:47;22.93;;;11.13;;
69188;SDS011;56302;52.322;5.926;2024-01-07T00:43:13;23.88;;;11.27;;
69188;SDS011;56302;52.322;5.926;2024-01-07T00:45:39;19.87;;;10.23;;
69188;SDS011;56302;52.322;5.926;2024-01-07T00:48:04;17.07;;;9.23;;
69188;SDS011;56302;52.322;5.926;2024-01-07T00:50:30;21.95;;;11.27;;
69188;SDS011;56302;52.322;5.926;2024-01-07T00:52:56;23.63;;;11.00;;
69188;SDS011;56302;52.322;5.926;2024-01-07T00:55:21;20.95;;;11.57;;
69188;SDS011;56302;52.322;5.926;2024-01-07T00:57:48;21.70;;;10.48;;
69188;SDS011;56302;52.322;5.926;2024-01-07T01:00:14;22.73;;;10.67;;
69188;SDS011;56302;52.322;5.926;2024-01-07T01:02:40;23.08;;;10.82;;
69188;SDS011;56302;52.322;5.926;2024-01-07T01:05:06;23.73;;;11.50;;
69188;SDS011;56302;52.322;5.926;2024-01-07T01:07:32;24.38;;;11.60;;
69188;SDS011;56302;52.322;5.926;2024-01-07T01:09:57;21.53;;;11.47;;
69188;SDS011;56302;52.322;5.926;2024-01-07T01:12:23;23.45;;;11.65;;
69188;SDS011;56302;52.322;5.926;2024-01-07T01:14:49;25.67;;;11.07;;
69188;SDS011;56302;52.322;5.926;2024-01-07T01:17:15;18.38;;;9.35;;
69188;SDS011;56302;52.322;5.926;2024-01-07T01:19:40;24.13;;;11.47;;
69188;SDS011;56302;52.322;5.926;2024-01-07T01:22:06;23.05;;;10.30;;
69188;SDS011;56302;52.322;5.926;2024-01-07T01:24:32;21.73;;;10.73;;
69188;SDS011;56302;52.322;5.926;2024-01-07T01:26:57;22.50;;;11.37;;
69188;SDS011;56302;52.322;5.926;2024-01-07T01:29:23;20.40;;;9.93;;
69188;SDS011;56302;52.322;5.926;2024-01-07T01:31:49;20.93;;;9.70;;
69188;SDS011;56302;52.322;5.926;2024-01-07T01:34:14;22.88;;;11.35;;
69188;SDS011;56302;52.322;5.926;2024-01-07T01:36:40;24.73;;;12.27;;
69188;SDS011;56302;52.322;5.926;2024-01-07T01:39:05;22.23;;;11.17;;
69188;SDS011;56302;52.322;5.926;2024-01-07T01:41:31;20.95;;;11.02;;
69188;SDS011;56302;52.322;5.926;2024-01-07T01:43:58;20.00;;;10.27;;
69188;SDS011;56302;52.322;5.926;2024-01-07T01:46:24;18.33;;;10.02;;
69188;SDS011;56302;52.322;5.926;2024-01-07T01:48:50;23.35;;;11.15;;
69188;SDS011;56302;52.322;5.926;2024-01-07T01:51:17;21.45;;;11.00;;
69188;SDS011;56302;52.322;5.926;2024-01-07T01:53:42;21.80;;;11.70;;
69188;SDS011;56302;52.322;5.926;2024-01-07T01:56:09;22.77;;;11.25;;
69188;SDS011;56302;52.322;5.926;2024-01-07T01:58:36;15.75;;;8.15;;
69188;SDS011;56302;52.322;5.926;2024-01-07T02:01:01;17.60;;;9.80;;
69188;SDS011;56302;52.322;5.926;2024-01-07T02:03:28;24.02;;;12.50;;
69188;SDS011;56302;52.322;5.926;2024-01-07T02:05:54;20.17;;;10.45;;
69188;SDS011;56302;52.322;5.926;2024-01-07T02:08:21;20.87;;;10.83;;
69188;SDS011;56302;52.322;5.926;2024-01-07T02:10:47;22.05;;;10.85;;
69188;SDS011;56302;52.322;5.926;2024-01-07T02:13:12;18.67;;;9.73;;
69188;SDS011;56302;52.322;5.926;2024-01-07T02:15:38;23.35;;;11.45;;
69188;SDS011;56302;52.322;5.926;2024-01-07T02:18:04;21.23;;;10.97;;
69188;SDS011;56302;52.322;5.926;2024-01-07T02:20:30;19.02;;;9.40;;
69188;SDS011;56302;52.322;5.926;2024-01-07T02:22:55;22.57;;;12.37;;
69188;SDS011;56302;52.322;5.926;2024-01-07T02:25:24;23.30;;;10.77;;
69188;SDS011;56302;52.322;5.926;2024-01-07T02:27:49;24.08;;;11.98;;
69188;SDS011;56302;52.322;5.926;2024-01-07T02:30:15;23.75;;;11.40;;
69188;SDS011;56302;52.322;5.926;2024-01-07T02:32:40;20.77;;;11.73;;
69188;SDS011;56302;52.322;5.926;2024-01-07T02:35:06;21.92;;;10.93;;
69188;SDS011;56302;52.322;5.926;2024-01-07T02:37:32;23.83;;;12.10;;
69188;SDS011;56302;52.322;5.926;2024-01-07T02:39:59;25.83;;;12.57;;
69188;SDS011;56302;52.322;5.926;2024-01-07T02:42:25;23.77;;;11.80;;
69188;SDS011;56302;52.322;5.926;2024-01-07T02:44:50;24.98;;;11.70;;
69188;SDS011;56302;52.322;5.926;2024-01-07T02:47:16;24.25;;;12.40;;
69188;SDS011;56302;52.322;5.926;2024-01-07T02:49:41;22.33;;;12.00;;
69188;SDS011;56302;52.322;5.926;2024-01-07T02:52:07;25.85;;;11.98;;
69188;SDS011;56302;52.322;5.926;2024-01-07T02:54:32;21.55;;;10.82;;
69188;SDS011;56302;52.322;5.926;2024-01-07T02:56:58;24.03;;;11.23;;
69188;SDS011;56302;52.322;5.926;2024-01-07T02:59:23;20.73;;;10.00;;
69188;SDS011;56302;52.322;5.926;2024-01-07T03:01:49;24.38;;;12.05;;
69188;SDS011;56302;52.322;5.926;2024-01-07T03:04:15;23.50;;;11.80;;
69188;SDS011;56302;52.322;5.926;2024-01-07T03:06:41;21.02;;;10.68;;
69188;SDS011;56302;52.322;5.926;2024-01-07T03:09:07;21.30;;;11.50;;
69188;SDS011;56302;52.322;5.926;2024-01-07T03:11:32;19.83;;;9.77;;
69188;SDS011;56302;52.322;5.926;2024-01-07T03:13:58;24.88;;;11.00;;
69188;SDS011;56302;52.322;5.926;2024-01-07T03:16:25;21.17;;;10.33;;
69188;SDS011;56302;52.322;5.926;2024-01-07T03:18:51;18.15;;;9.65;;
69188;SDS011;56302;52.322;5.926;2024-01-07T03:21:20;18.33;;;9.50;;
69188;SDS011;56302;52.322;5.926;2024-01-07T03:23:47;22.25;;;8.90;;
69188;SDS011;56302;52.322;5.926;2024-01-07T03:26:14;17.45;;;8.82;;
69188;SDS011;56302;52.322;5.926;2024-01-07T03:28:40;16.10;;;7.47;;
69188;SDS011;56302;52.322;5.926;2024-01-07T03:31:11;17.93;;;8.77;;
69188;SDS011;56302;52.322;5.926;2024-01-07T03:33:38;15.77;;;7.63;;
69188;SDS011;56302;52.322;5.926;2024-01-07T03:36:08;18.13;;;8.68;;
69188;SDS011;56302;52.322;5.926;2024-01-07T03:38:35;21.35;;;10.00;;
69188;SDS011;56302;52.322;5.926;2024-01-07T03:41:01;16.47;;;8.17;;
69188;SDS011;56302;52.322;5.926;2024-01-07T03:43:27;13.63;;;6.63;;
69188;SDS011;56302;52.322;5.926;2024-01-07T03:45:52;11.80;;;6.50;;
69188;SDS011;56302;52.322;5.926;2024-01-07T03:48:18;19.98;;;8.13;;
69188;SDS011;56302;52.322;5.926;2024-01-07T03:50:43;16.17;;;9.07;;
69188;SDS011;56302;52.322;5.926;2024-01-07T03:53:09;16.20;;;8.82;;
69188;SDS011;56302;52.322;5.926;2024-01-07T03:55:35;15.35;;;7.95;;
69188;SDS011;56302;52.322;5.926;2024-01-07T03:58:00;15.97;;;8.53;;
69188;SDS011;56302;52.322;5.926;2024-01-07T04:00:26;16.30;;;8.57;;
69188;SDS011;56302;52.322;5.926;2024-01-07T04:02:51;16.50;;;8.13;;
69188;SDS011;56302;52.322;5.926;2024-01-07T04:05:17;16.27;;;7.13;;
69188;SDS011;56302;52.322;5.926;2024-01-07T04:07:43;12.07;;;6.20;;
69188;SDS011;56302;52.322;5.926;2024-01-07T04:10:08;14.30;;;6.60;;
69188;SDS011;56302;52.322;5.926;2024-01-07T04:12:34;17.92;;;9.57;;
69188;SDS011;56302;52.322;5.926;2024-01-07T04:14:59;16.13;;;8.57;;
69188;SDS011;56302;52.322;5.926;2024-01-07T04:17:25;13.47;;;7.33;;
69188;SDS011;56302;52.322;5.926;2024-01-07T04:19:52;8.30;;;4.40;;
69188;SDS011;56302;52.322;5.926;2024-01-07T04:22:18;13.33;;;8.17;;
69188;SDS011;56302;52.322;5.926;2024-01-07T04:24:43;15.40;;;8.57;;
69188;SDS011;56302;52.322;5.926;2024-01-07T04:27:09;12.13;;;6.27;;
69188;SDS011;56302;52.322;5.926;2024-01-07T04:29:35;16.15;;;8.05;;
69188;SDS011;56302;52.322;5.926;2024-01-07T04:32:00;10.27;;;6.23;;
69188;SDS011;56302;52.322;5.926;2024-01-07T04:34:26;15.30;;;8.73;;
69188;SDS011;56302;52.322;5.926;2024-01-07T04:36:52;13.20;;;7.10;;
69188;SDS011;56302;52.322;5.926;2024-01-07T04:39:17;14.40;;;8.03;;
69188;SDS011;56302;52.322;5.926;2024-01-07T04:41:43;12.18;;;6.75;;
69188;SDS011;56302;52.322;5.926;2024-01-07T04:44:08;12.60;;;6.00;;
69188;SDS011;56302;52.322;5.926;2024-01-07T04:46:34;14.48;;;7.38;;
69188;SDS011;56302;52.322;5.926;2024-01-07T04:49:02;16.33;;;8.05;;
69188;SDS011;56302;52.322;5.926;2024-01-07T04:51:28;11.57;;;6.53;;
69188;SDS011;56302;52.322;5.926;2024-01-07T04:53:54;13.93;;;7.90;;
69188;SDS011;56302;52.322;5.926;2024-01-07T04:56:19;8.30;;;4.33;;
69188;SDS011;56302;52.322;5.926;2024-01-07T04:58:45;14.38;;;8.30;;
69188;SDS011;56302;52.322;5.926;2024-01-07T05:01:11;16.07;;;7.03;;
69188;SDS011;56302;52.322;5.926;2024-01-07T05:03:36;14.95;;;7.82;;
69188;SDS011;56302;52.322;5.926;2024-01-07T05:06:03;15.47;;;8.20;;
69188;SDS011;56302;52.322;5.926;2024-01-07T05:08:29;8.80;;;5.25;;
69188;SDS011;56302;52.322;5.926;2024-01-07T05:10:55;15.98;;;7.88;;
69188;SDS011;56302;52.322;5.926;2024-01-07T05:13:21;15.88;;;8.48;;
69188;SDS011;56302;52.322;5.926;2024-01-07T05:15:47;16.90;;;9.10;;
69188;SDS011;56302;52.322;5.926;2024-01-07T05:18:19;15.95;;;8.35;;
69188;SDS011;56302;52.322;5.926;2024-01-07T05:20:48;12.90;;;6.70;;
69188;SDS011;56302;52.322;5.926;2024-01-07T05:23:14;14.30;;;7.43;;
69188;SDS011;56302;52.322;5.926;2024-01-07T05:25:42;12.50;;;6.97;;
69188;SDS011;56302;52.322;5.926;2024-01-07T05:28:08;13.73;;;7.00;;
69188;SDS011;56302;52.322;5.926;2024-01-07T05:30:34;14.15;;;7.57;;
69188;SDS011;56302;52.322;5.926;2024-01-07T05:32:59;16.63;;;6.23;;
69188;SDS011;56302;52.322;5.926;2024-01-07T05:35:25;13.20;;;7.53;;
69188;SDS011;56302;52.322;5.926;2024-01-07T05:37:50;13.57;;;7.15;;
69188;SDS011;56302;52.322;5.926;2024-01-07T05:40:16;12.23;;;6.67;;
69188;SDS011;56302;52.322;5.926;2024-01-07T05:42:41;14.00;;;7.93;;
69188;SDS011;56302;52.322;5.926;2024-01-07T05:45:07;11.70;;;6.55;;
69188;SDS011;56302;52.322;5.926;2024-01-07T05:47:33;12.23;;;6.90;;
69188;SDS011;56302;52.322;5.926;2024-01-07T05:49:59;11.45;;;7.20;;
69188;SDS011;56302;52.322;5.926;2024-01-07T05:52:24;12.20;;;7.00;;
69188;SDS011;56302;52.322;5.926;2024-01-07T05:54:50;11.82;;;6.05;;
69188;SDS011;56302;52.322;5.926;2024-01-07T05:57:16;14.73;;;7.87;;
69188;SDS011;56302;52.322;5.926;2024-01-07T05:59:43;13.35;;;7.57;;
69188;SDS011;56302;52.322;5.926;2024-01-07T06:02:09;15.77;;;8.30;;
69188;SDS011;56302;52.322;5.926;2024-01-07T06:04:36;17.58;;;8.13;;
69188;SDS011;56302;52.322;5.926;2024-01-07T06:07:02;12.30;;;7.13;;
69188;SDS011;56302;52.322;5.926;2024-01-07T06:09:28;14.10;;;7.63;;
69188;SDS011;56302;52.322;5.926;2024-01-07T06:11:53;15.10;;;7.57;;
69188;SDS011;56302;52.322;5.926;2024-01-07T06:14:19;16.67;;;8.85;;
69188;SDS011;56302;52.322;5.926;2024-01-07T06:16:45;11.47;;;6.83;;
69188;SDS011;56302;52.322;5.926;2024-01-07T06:19:11;14.52;;;7.93;;
69188;SDS011;56302;52.322;5.926;2024-01-07T06:21:36;12.60;;;6.53;;
69188;SDS011;56302;52.322;5.926;2024-01-07T06:24:02;14.63;;;8.00;;
69188;SDS011;56302;52.322;5.926;2024-01-07T06:26:28;14.25;;;8.73;;
69188;SDS011;56302;52.322;5.926;2024-01-07T06:28:53;14.40;;;6.30;;
69188;SDS011;56302;52.322;5.926;2024-01-07T06:31:19;15.73;;;8.70;;
69188;SDS011;56302;52.322;5.926;2024-01-07T06:33:44;14.07;;;7.87;;
69188;SDS011;56302;52.322;5.926;2024-01-07T06:36:10;11.43;;;6.63;;
69188;SDS011;56302;52.322;5.926;2024-01-07T06:38:35;15.55;;;8.27;;
69188;SDS011;56302;52.322;5.926;2024-01-07T06:41:01;15.50;;;8.30;;
69188;SDS011;56302;52.322;5.926;2024-01-07T06:43:29;16.00;;;7.78;;
69188;SDS011;56302;52.322;5.926;2024-01-07T06:45:55;16.40;;;8.57;;
69188;SDS011;56302;52.322;5.926;2024-01-07T06:48:21;14.73;;;7.25;;
69188;SDS011;56302;52.322;5.926;2024-01-07T06:50:46;14.30;;;7.33;;
69188;SDS011;56302;52.322;5.926;2024-01-07T06:53:12;12.17;;;5.90;;
69188;SDS011;56302;52.322;5.926;2024-01-07T06:55:37;10.30;;;5.90;;
69188;SDS011;56302;52.322;5.926;2024-01-07T06:58:04;9.27;;;5.50;;
69188;SDS011;56302;52.322;5.926;2024-01-07T07:00:30;7.65;;;4.32;;
69188;SDS011;56302;52.322;5.926;2024-01-07T07:02:55;11.67;;;6.53;;
69188;SDS011;56302;52.322;5.926;2024-01-07T07:05:21;10.48;;;5.90;;
69188;SDS011;56302;52.322;5.926;2024-01-07T07:07:46;12.68;;;6.50;;
69188;SDS011;56302;52.322;5.926;2024-01-07T07:10:12;12.63;;;6.87;;
69188;SDS011;56302;52.322;5.926;2024-01-07T07:12:38;11.20;;;5.50;;
69188;SDS011;56302;52.322;5.926;2024-01-07T07:15:03;10.73;;;5.20;;
69188;SDS011;56302;52.322;5.926;2024-01-07T07:17:29;11.37;;;5.70;;
69188;SDS011;56302;52.322;5.926;2024-01-07T07:19:54;11.13;;;4.95;;
69188;SDS011;56302;52.322;5.926;2024-01-07T07:22:20;12.17;;;6.43;;
69188;SDS011;56302;52.322;5.926;2024-01-07T07:24:46;9.43;;;4.80;;
69188;SDS011;56302;52.322;5.926;2024-01-07T07:27:11;10.27;;;6.03;;
69188;SDS011;56302;52.322;5.926;2024-01-07T07:29:37;12.30;;;6.67;;
69188;SDS011;56302;52.322;5.926;2024-01-07T07:32:02;10.87;;;6.57;;
69188;SDS011;56302;52.322;5.926;2024-01-07T07:34:28;10.90;;;6.60;;
69188;SDS011;56302;52.322;5.926;2024-01-07T07:36:54;13.20;;;7.47;;
69188;SDS011;56302;52.322;5.926;2024-01-07T07:39:20;11.70;;;6.00;;
69188;SDS011;56302;52.322;5.926;2024-01-07T07:41:46;11.63;;;6.20;;
69188;SDS011;56302;52.322;5.926;2024-01-07T07:44:13;8.57;;;5.17;;
69188;SDS011;56302;52.322;5.926;2024-01-07T07:46:38;12.05;;;5.18;;
69188;SDS011;56302;52.322;5.926;2024-01-07T07:49:04;11.07;;;4.70;;
69188;SDS011;56302;52.322;5.926;2024-01-07T07:51:30;10.27;;;5.82;;
69188;SDS011;56302;52.322;5.926;2024-01-07T07:53:56;8.47;;;3.10;;
69188;SDS011;56302;52.322;5.926;2024-01-07T07:56:25;11.07;;;4.97;;
69188;SDS011;56302;52.322;5.926;2024-01-07T07:58:51;9.13;;;4.00;;
69188;SDS011;56302;52.322;5.926;2024-01-07T08:01:17;9.18;;;4.82;;
69188;SDS011;56302;52.322;5.926;2024-01-07T08:03:43;10.37;;;5.30;;
69188;SDS011;56302;52.322;5.926;2024-01-07T08:06:08;10.88;;;4.53;;
69188;SDS011;56302;52.322;5.926;2024-01-07T08:08:34;9.63;;;5.00;;
69188;SDS011;56302;52.322;5.926;2024-01-07T08:11:00;9.10;;;5.03;;
69188;SDS011;56302;52.322;5.926;2024-01-07T08:13:25;12.48;;;6.57;;
69188;SDS011;56302;52.322;5.926;2024-01-07T08:15:51;11.03;;;6.23;;
69188;SDS011;56302;52.322;5.926;2024-01-07T08:18:16;7.97;;;4.10;;
69188;SDS011;56302;52.322;5.926;2024-01-07T08:20:42;9.68;;;5.10;;
69188;SDS011;56302;52.322;5.926;2024-01-07T08:23:08;7.27;;;4.13;;
69188;SDS011;56302;52.322;5.926;2024-01-07T08:25:33;9.20;;;4.55;;
69188;SDS011;56302;52.322;5.926;2024-01-07T08:27:59;9.45;;;4.70;;
69188;SDS011;56302;52.322;5.926;2024-01-07T08:30:24;10.10;;;4.67;;
69188;SDS011;56302;52.322;5.926;2024-01-07T08:32:50;9.63;;;4.83;;
69188;SDS011;56302;52.322;5.926;2024-01-07T08:35:15;8.55;;;2.70;;
69188;SDS011;56302;52.322;5.926;2024-01-07T08:37:41;8.27;;;3.87;;
69188;SDS011;56302;52.322;5.926;2024-01-07T08:40:07;7.03;;;4.00;;
69188;SDS011;56302;52.322;5.926;2024-01-07T08:42:34;8.65;;;4.38;;
69188;SDS011;56302;52.322;5.926;2024-01-07T08:45:00;8.38;;;4.38;;
69188;SDS011;56302;52.322;5.926;2024-01-07T08:47:26;8.33;;;3.83;;
69188;SDS011;56302;52.322;5.926;2024-01-07T08:49:51;9.55;;;4.07;;
69188;SDS011;56302;52.322;5.926;2024-01-07T08:52:18;8.40;;;3.70;;
69188;SDS011;56302;52.322;5.926;2024-01-07T08:54:44;8.10;;;3.85;;
69188;SDS011;56302;52.322;5.926;2024-01-07T08:57:10;10.23;;;4.33;;
69188;SDS011;56302;52.322;5.926;2024-01-07T08:59:35;11.63;;;4.03;;
69188;SDS011;56302;52.322;5.926;2024-01-07T09:02:01;6.40;;;2.67;;
69188;SDS011;56302;52.322;5.926;2024-01-07T09:04:27;7.13;;;3.28;;
69188;SDS011;56302;52.322;5.926;2024-01-07T09:06:53;7.07;;;3.00;;
69188;SDS011;56302;52.322;5.926;2024-01-07T09:09:18;6.50;;;3.00;;
69188;SDS011;56302;52.322;5.926;2024-01-07T09:11:44;6.90;;;2.92;;
69188;SDS011;56302;52.322;5.926;2024-01-07T09:14:10;8.48;;;3.17;;
69188;SDS011;56302;52.322;5.926;2024-01-07T09:16:36;6.63;;;2.60;;
69188;SDS011;56302;52.322;5.926;2024-01-07T09:19:01;5.67;;;2.80;;
69188;SDS011;56302;52.322;5.926;2024-01-07T09:21:27;5.38;;;2.33;;
69188;SDS011;56302;52.322;5.926;2024-01-07T09:23:53;5.20;;;2.33;;
69188;SDS011;56302;52.322;5.926;2024-01-07T09:26:18;6.23;;;2.40;;
69188;SDS011;56302;52.322;5.926;2024-01-07T09:28:44;7.13;;;2.88;;
69188;SDS011;56302;52.322;5.926;2024-01-07T09:31:09;7.57;;;2.80;;
69188;SDS011;56302;52.322;5.926;2024-01-07T09:33:35;5.00;;;2.33;;
69188;SDS011;56302;52.322;5.926;2024-01-07T09:36:00;5.90;;;2.80;;
69188;SDS011;56302;52.322;5.926;2024-01-07T09:38:26;6.20;;;2.40;;
69188;SDS011;56302;52.322;5.926;2024-01-07T09:40:52;5.67;;;2.57;;
69188;SDS011;56302;52.322;5.926;2024-01-07T09:43:18;6.25;;;2.35;;
69188;SDS011;56302;52.322;5.926;2024-01-07T09:45:47;4.93;;;2.15;;
69188;SDS011;56302;52.322;5.926;2024-01-07T09:48:16;6.35;;;2.22;;
69188;SDS011;56302;52.322;5.926;2024-01-07T09:50:42;5.93;;;1.90;;
69188;SDS011;56302;52.322;5.926;2024-01-07T09:53:09;7.03;;;2.17;;
69188;SDS011;56302;52.322;5.926;2024-01-07T09:56:01;6.13;;;2.00;;
69188;SDS011;56302;52.322;5.926;2024-01-07T09:58:38;5.78;;;2.10;;
69188;SDS011;56302;52.322;5.926;2024-01-07T10:01:07;4.72;;;2.47;;
69188;SDS011;56302;52.322;5.926;2024-01-07T10:03:33;5.13;;;2.40;;
69188;SDS011;56302;52.322;5.926;2024-01-07T10:05:59;4.03;;;2.17;;
69188;SDS011;56302;52.322;5.926;2024-01-07T10:08:24;4.43;;;1.87;;
69188;SDS011;56302;52.322;5.926;2024-01-07T10:10:50;4.90;;;1.83;;
69188;SDS011;56302;52.322;5.926;2024-01-07T10:13:15;4.53;;;1.70;;
69188;SDS011;56302;52.322;5.926;2024-01-07T10:15:41;4.37;;;1.97;;
69188;SDS011;56302;52.322;5.926;2024-01-07T10:18:07;4.38;;;2.00;;
69188;SDS011;56302;52.322;5.926;2024-01-07T10:20:33;4.63;;;2.00;;
69188;SDS011;56302;52.322;5.926;2024-01-07T10:22:59;5.90;;;2.03;;
69188;SDS011;56302;52.322;5.926;2024-01-07T10:25:26;3.63;;;1.80;;
69188;SDS011;56302;52.322;5.926;2024-01-07T10:27:52;5.82;;;2.05;;
69188;SDS011;56302;52.322;5.926;2024-01-07T10:30:18;3.13;;;1.70;;
69188;SDS011;56302;52.322;5.926;2024-01-07T10:32:44;3.65;;;1.70;;
69188;SDS011;56302;52.322;5.926;2024-01-07T10:35:13;3.43;;;1.57;;
69188;SDS011;56302;52.322;5.926;2024-01-07T10:37:42;5.03;;;2.30;;
69188;SDS011;56302;52.322;5.926;2024-01-07T10:40:10;3.92;;;2.05;;
69188;SDS011;56302;52.322;5.926;2024-01-07T10:42:37;5.53;;;1.90;;
69188;SDS011;56302;52.322;5.926;2024-01-07T10:45:04;3.40;;;1.40;;
69188;SDS011;56302;52.322;5.926;2024-01-07T10:47:30;3.70;;;1.60;;
69188;SDS011;56302;52.322;5.926;2024-01-07T10:49:57;6.50;;;2.00;;
69188;SDS011;56302;52.322;5.926;2024-01-07T10:52:27;4.78;;;2.20;;
69188;SDS011;56302;52.322;5.926;2024-01-07T10:54:53;5.82;;;2.40;;
69188;SDS011;56302;52.322;5.926;2024-01-07T10:57:32;5.32;;;1.75;;
69188;SDS011;56302;52.322;5.926;2024-01-07T11:00:03;3.50;;;1.57;;
69188;SDS011;56302;52.322;5.926;2024-01-07T11:02:37;2.88;;;1.35;;
69188;SDS011;56302;52.322;5.926;2024-01-07T11:05:36;6.40;;;1.30;;
69188;SDS011;56302;52.322;5.926;2024-01-07T11:08:24;3.35;;;1.65;;
69188;SDS011;56302;52.322;5.926;2024-01-07T11:10:55;4.22;;;1.70;;
69188;SDS011;56302;52.322;5.926;2024-01-07T11:13:32;4.93;;;2.13;;
69188;SDS011;56302;52.322;5.926;2024-01-07T11:16:06;3.70;;;1.80;;
69188;SDS011;56302;52.322;5.926;2024-01-07T11:18:39;4.53;;;1.42;;
69188;SDS011;56302;52.322;5.926;2024-01-07T11:21:10;3.70;;;1.80;;
69188;SDS011;56302;52.322;5.926;2024-01-07T11:23:36;3.70;;;1.60;;
69188;SDS011;56302;52.322;5.926;2024-01-07T11:26:08;3.08;;;1.25;;
69188;SDS011;56302;52.322;5.926;2024-01-07T11:28:47;4.07;;;1.38;;
69188;SDS011;56302;52.322;5.926;2024-01-07T11:31:42;4.00;;;1.43;;
69188;SDS011;56302;52.322;5.926;2024-01-07T11:34:08;4.50;;;1.80;;
69188;SDS011;56302;52.322;5.926;2024-01-07T11:36:36;5.75;;;1.20;;
69188;SDS011;56302;52.322;5.926;2024-01-07T11:39:03;3.42;;;1.67;;
69188;SDS011;56302;52.322;5.926;2024-01-07T11:41:31;5.07;;;1.40;;
69188;SDS011;56302;52.322;5.926;2024-01-07T11:43:59;3.83;;;1.30;;
69188;SDS011;56302;52.322;5.926;2024-01-07T11:46:28;2.80;;;1.33;;
69188;SDS011;56302;52.322;5.926;2024-01-07T11:48:56;3.35;;;1.45;;
69188;SDS011;56302;52.322;5.926;2024-01-07T11:51:30;4.07;;;1.27;;
69188;SDS011;56302;52.322;5.926;2024-01-07T11:53:59;2.73;;;1.23;;
69188;SDS011;56302;52.322;5.926;2024-01-07T11:56:25;4.43;;;1.50;;
69188;SDS011;56302;52.322;5.926;2024-01-07T11:58:51;4.20;;;1.58;;
69188;SDS011;56302;52.322;5.926;2024-01-07T12:01:17;2.87;;;1.47;;
69188;SDS011;56302;52.322;5.926;2024-01-07T12:03:44;2.80;;;1.23;;
69188;SDS011;56302;52.322;5.926;2024-01-07T12:06:10;3.45;;;1.40;;
69188;SDS011;56302;52.322;5.926;2024-01-07T12:08:42;2.92;;;1.05;;
69188;SDS011;56302;52.322;5.926;2024-01-07T12:11:12;4.13;;;1.60;;
69188;SDS011;56302;52.322;5.926;2024-01-07T12:13:39;4.97;;;1.40;;
69188;SDS011;56302;52.322;5.926;2024-01-07T12:16:05;6.25;;;1.58;;
69188;SDS011;56302;52.322;5.926;2024-01-07T12:18:32;3.20;;;1.30;;
69188;SDS011;56302;52.322;5.926;2024-01-07T12:20:58;4.28;;;1.30;;
69188;SDS011;56302;52.322;5.926;2024-01-07T12:23:25;3.58;;;1.30;;
69188;SDS011;56302;52.322;5.926;2024-01-07T12:25:54;2.70;;;1.30;;
69188;SDS011;56302;52.322;5.926;2024-01-07T12:28:21;3.70;;;1.65;;
69188;SDS011;56302;52.322;5.926;2024-01-07T12:30:49;2.83;;;1.27;;
69188;SDS011;56302;52.322;5.926;2024-01-07T12:33:16;3.17;;;1.60;;
69188;SDS011;56302;52.322;5.926;2024-01-07T12:35:45;5.20;;;1.50;;
69188;SDS011;56302;52.322;5.926;2024-01-07T12:38:12;5.72;;;1.33;;
69188;SDS011;56302;52.322;5.926;2024-01-07T12:40:37;2.43;;;1.10;;
69188;SDS011;56302;52.322;5.926;2024-01-07T12:43:04;3.13;;;1.25;;
69188;SDS011;56302;52.322;5.926;2024-01-07T12:45:31;2.58;;;1.23;;
69188;SDS011;56302;52.322;5.926;2024-01-07T12:47:57;3.00;;;1.13;;
69188;SDS011;56302;52.322;5.926;2024-01-07T12:50:26;3.27;;;1.30;;
69188;SDS011;56302;52.322;5.926;2024-01-07T12:52:54;3.70;;;1.23;;
69188;SDS011;56302;52.322;5.926;2024-01-07T12:55:20;3.03;;;1.40;;
69188;SDS011;56302;52.322;5.926;2024-01-07T12:57:46;3.15;;;1.27;;
69188;SDS011;56302;52.322;5.926;2024-01-07T13:00:12;3.37;;;1.37;;
69188;SDS011;56302;52.322;5.926;2024-01-07T13:02:38;2.25;;;0.95;;
69188;SDS011;56302;52.322;5.926;2024-01-07T13:05:05;3.38;;;1.30;;
69188;SDS011;56302;52.322;5.926;2024-01-07T13:07:31;3.13;;;0.87;;
69188;SDS011;56302;52.322;5.926;2024-01-07T13:09:57;2.72;;;0.68;;
69188;SDS011;56302;52.322;5.926;2024-01-07T13:12:23;3.40;;;1.30;;
69188;SDS011;56302;52.322;5.926;2024-01-07T13:14:48;2.63;;;1.20;;
69188;SDS011;56302;52.322;5.926;2024-01-07T13:17:14;3.20;;;1.35;;
69188;SDS011;56302;52.322;5.926;2024-01-07T13:19:40;3.67;;;1.40;;
69188;SDS011;56302;52.322;5.926;2024-01-07T13:22:06;3.33;;;1.03;;
69188;SDS011;56302;52.322;5.926;2024-01-07T13:24:32;3.05;;;1.10;;
69188;SDS011;56302;52.322;5.926;2024-01-07T13:26:58;4.25;;;1.45;;
69188;SDS011;56302;52.322;5.926;2024-01-07T13:29:23;2.83;;;1.17;;
69188;SDS011;56302;52.322;5.926;2024-01-07T13:31:49;2.22;;;1.00;;
69188;SDS011;56302;52.322;5.926;2024-01-07T13:34:15;3.43;;;1.50;;
69188;SDS011;56302;52.322;5.926;2024-01-07T13:36:43;3.33;;;1.10;;
69188;SDS011;56302;52.322;5.926;2024-01-07T13:39:11;3.38;;;1.30;;
69188;SDS011;56302;52.322;5.926;2024-01-07T13:41:37;2.60;;;1.00;;
69188;SDS011;56302;52.322;5.926;2024-01-07T13:44:04;4.82;;;1.23;;
69188;SDS011;56302;52.322;5.926;2024-01-07T13:46:29;2.58;;;0.90;;
69188;SDS011;56302;52.322;5.926;2024-01-07T13:48:55;4.13;;;1.57;;
69188;SDS011;56302;52.322;5.926;2024-01-07T13:51:20;2.60;;;1.23;;
69188;SDS011;56302;52.322;5.926;2024-01-07T13:53:46;4.27;;;1.80;;
69188;SDS011;56302;52.322;5.926;2024-01-07T13:56:12;3.87;;;1.40;;
69188;SDS011;56302;52.322;5.926;2024-01-07T13:58:38;4.03;;;1.50;;
69188;SDS011;56302;52.322;5.926;2024-01-07T14:01:03;2.72;;;1.13;;
69188;SDS011;56302;52.322;5.926;2024-01-07T14:03:30;2.47;;;0.95;;
69188;SDS011;56302;52.322;5.926;2024-01-07T14:05:58;2.42;;;1.17;;
69188;SDS011;56302;52.322;5.926;2024-01-07T14:08:23;5.35;;;1.23;;
69188;SDS011;56302;52.322;5.926;2024-01-07T14:10:49;3.20;;;1.40;;
69188;SDS011;56302;52.322;5.926;2024-01-07T14:13:15;4.00;;;1.60;;
69188;SDS011;56302;52.322;5.926;2024-01-07T14:15:40;4.68;;;1.63;;
69188;SDS011;56302;52.322;5.926;2024-01-07T14:18:07;3.40;;;1.25;;
69188;SDS011;56302;52.322;5.926;2024-01-07T14:20:34;4.43;;;1.60;;
69188;SDS011;56302;52.322;5.926;2024-01-07T14:23:00;3.65;;;1.50;;
69188;SDS011;56302;52.322;5.926;2024-01-07T14:25:26;3.00;;;1.50;;
69188;SDS011;56302;52.322;5.926;2024-01-07T14:27:52;4.30;;;2.67;;
69188;SDS011;56302;52.322;5.926;2024-01-07T14:30:17;4.20;;;2.30;;
69188;SDS011;56302;52.322;5.926;2024-01-07T14:32:43;3.67;;;1.50;;
69188;SDS011;56302;52.322;5.926;2024-01-07T14:35:09;5.68;;;1.10;;